sensor_id;sensor_type;location;lat;lon;timestamp;pressure;altitude;pressure_sealevel;temperature;humidity
52105;BME280;38103;42.776;23.112;2022-08-26T00:01:16;93638.72;;;18.04;75.23
52105;BME280;38103;42.776;23.112;2022-08-26T00:03:42;93680.97;;;18.26;74.86
52105;BME280;38103;42.776;23.112;2022-08-26T00:06:08;93679.47;;;18.15;75.52
52105;BME280;38103;42.776;23.112;2022-08-26T00:08:33;93682.47;;;18.13;76.31
52105;BME280;38103;42.776;23.112;2022-08-26T00:10:59;93616.34;;;17.56;76.46
52105;BME280;38103;42.776;23.112;2022-08-26T00:13:25;93670.09;;;17.98;76.91
52105;BME280;38103;42.776;23.112;2022-08-26T00:15:50;93671.41;;;18.01;75.61
52105;BME280;38103;42.776;23.112;2022-08-26T00:18:17;93668.28;;;17.93;76.39
52105;BME280;38103;42.776;23.112;2022-08-26T00:20:43;93666.19;;;17.90;77.02
52105;BME280;38103;42.776;23.112;2022-08-26T00:23:08;93631.50;;;17.85;75.45
52105;BME280;38103;42.776;23.112;2022-08-26T00:25:34;93586.38;;;17.59;74.74
52105;BME280;38103;42.776;23.112;2022-08-26T00:28:00;93666.34;;;18.18;75.15
52105;BME280;38103;42.776;23.112;2022-08-26T00:30:27;93657.19;;;18.19;75.00
52105;BME280;38103;42.776;23.112;2022-08-26T00:32:54;93662.50;;;18.25;74.94
52105;BME280;38103;42.776;23.112;2022-08-26T00:35:20;93593.25;;;17.84;74.39
52105;BME280;38103;42.776;23.112;2022-08-26T00:37:46;93663.47;;;18.34;74.15
52105;BME280;38103;42.776;23.112;2022-08-26T00:40:17;93655.94;;;18.36;73.91
52105;BME280;38103;42.776;23.112;2022-08-26T00:42:43;93654.84;;;18.37;73.31
52105;BME280;38103;42.776;23.112;2022-08-26T00:45:09;93653.47;;;18.40;73.43
52105;BME280;38103;42.776;23.112;2022-08-26T00:47:38;93661.28;;;18.36;73.47
52105;BME280;38103;42.776;23.112;2022-08-26T00:50:07;93657.53;;;18.37;73.57
52105;BME280;38103;42.776;23.112;2022-08-26T00:52:35;93651.66;;;18.35;74.00
52105;BME280;38103;42.776;23.112;2022-08-26T00:55:03;93658.47;;;18.27;74.63
52105;BME280;38103;42.776;23.112;2022-08-26T00:57:31;93659.19;;;18.14;75.62
52105;BME280;38103;42.776;23.112;2022-08-26T01:00:00;93660.47;;;17.97;75.70
52105;BME280;38103;42.776;23.112;2022-08-26T01:02:26;93660.84;;;17.90;75.81
52105;BME280;38103;42.776;23.112;2022-08-26T01:04:58;93655.47;;;17.90;75.62
52105;BME280;38103;42.776;23.112;2022-08-26T01:07:27;93644.78;;;17.90;74.90
52105;BME280;38103;42.776;23.112;2022-08-26T01:09:54;93662.50;;;18.05;75.71
52105;BME280;38103;42.776;23.112;2022-08-26T01:12:23;93653.31;;;17.92;76.00
52105;BME280;38103;42.776;23.112;2022-08-26T01:14:49;93653.53;;;17.96;76.30
52105;BME280;38103;42.776;23.112;2022-08-26T01:17:15;93665.00;;;17.96;75.74
52105;BME280;38103;42.776;23.112;2022-08-26T01:19:53;93663.00;;;17.88;76.38
52105;BME280;38103;42.776;23.112;2022-08-26T01:22:30;93663.91;;;17.78;76.93
52105;BME280;38103;42.776;23.112;2022-08-26T01:24:58;93631.69;;;17.69;77.85
52105;BME280;38103;42.776;23.112;2022-08-26T01:27:25;93658.72;;;17.87;76.26
52105;BME280;38103;42.776;23.112;2022-08-26T01:29:56;93657.34;;;17.70;76.77
52105;BME280;38103;42.776;23.112;2022-08-26T01:32:22;93658.78;;;17.82;76.18
52105;BME280;38103;42.776;23.112;2022-08-26T01:34:49;93658.78;;;17.82;76.48
52105;BME280;38103;42.776;23.112;2022-08-26T01:37:25;93652.88;;;17.85;76.91
52105;BME280;38103;42.776;23.112;2022-08-26T01:39:53;93601.53;;;17.44;77.07
52105;BME280;38103;42.776;23.112;2022-08-26T01:42:21;93614.13;;;17.63;76.62
52105;BME280;38103;42.776;23.112;2022-08-26T01:45:13;93648.91;;;17.82;76.57
52105;BME280;38103;42.776;23.112;2022-08-26T01:47:39;93659.97;;;17.75;77.24
52105;BME280;38103;42.776;23.112;2022-08-26T01:50:13;93648.59;;;17.64;77.83
52105;BME280;38103;42.776;23.112;2022-08-26T01:52:42;93652.72;;;17.76;77.12
52105;BME280;38103;42.776;23.112;2022-08-26T01:55:10;93649.16;;;17.81;76.68
52105;BME280;38103;42.776;23.112;2022-08-26T01:57:38;93645.06;;;17.69;77.02
52105;BME280;38103;42.776;23.112;2022-08-26T02:00:06;93643.44;;;17.68;77.38
52105;BME280;38103;42.776;23.112;2022-08-26T02:02:33;93644.06;;;17.65;76.99
52105;BME280;38103;42.776;23.112;2022-08-26T02:05:01;93611.91;;;17.26;78.00
52105;BME280;38103;42.776;23.112;2022-08-26T02:07:28;93619.81;;;17.37;77.77
52105;BME280;38103;42.776;23.112;2022-08-26T02:09:54;93647.03;;;17.39;78.50
52105;BME280;38103;42.776;23.112;2022-08-26T02:12:21;93609.56;;;17.19;78.72
52105;BME280;38103;42.776;23.112;2022-08-26T02:14:49;93640.47;;;17.50;78.02
52105;BME280;38103;42.776;23.112;2022-08-26T02:17:20;93623.50;;;17.41;78.27
52105;BME280;38103;42.776;23.112;2022-08-26T02:19:47;93644.25;;;17.49;79.02
52105;BME280;38103;42.776;23.112;2022-08-26T02:22:17;93642.69;;;17.43;79.13
52105;BME280;38103;42.776;23.112;2022-08-26T02:27:12;93651.88;;;17.07;80.24
52105;BME280;38103;42.776;23.112;2022-08-26T02:29:42;93640.94;;;17.08;81.01
52105;BME280;38103;42.776;23.112;2022-08-26T02:32:09;93642.00;;;17.07;81.03
52105;BME280;38103;42.776;23.112;2022-08-26T02:34:35;93630.41;;;16.93;81.03
52105;BME280;38103;42.776;23.112;2022-08-26T02:37:05;93643.69;;;16.98;81.37
52105;BME280;38103;42.776;23.112;2022-08-26T02:39:32;93640.19;;;17.03;81.16
52105;BME280;38103;42.776;23.112;2022-08-26T02:41:57;93651.41;;;17.00;81.63
52105;BME280;38103;42.776;23.112;2022-08-26T02:44:24;93579.53;;;16.54;82.22
52105;BME280;38103;42.776;23.112;2022-08-26T02:46:50;93642.66;;;16.94;83.38
52105;BME280;38103;42.776;23.112;2022-08-26T02:49:16;93640.09;;;16.83;83.96
52105;BME280;38103;42.776;23.112;2022-08-26T02:51:41;93648.19;;;16.73;84.17
52105;BME280;38103;42.776;23.112;2022-08-26T02:54:07;93638.09;;;16.70;84.72
52105;BME280;38103;42.776;23.112;2022-08-26T02:56:33;93643.84;;;16.82;84.96
52105;BME280;38103;42.776;23.112;2022-08-26T02:58:58;93644.56;;;16.88;84.30
52105;BME280;38103;42.776;23.112;2022-08-26T03:01:26;93648.56;;;16.91;83.85
52105;BME280;38103;42.776;23.112;2022-08-26T03:03:53;93650.06;;;17.02;83.51
52105;BME280;38103;42.776;23.112;2022-08-26T03:06:18;93648.84;;;17.14;83.06
52105;BME280;38103;42.776;23.112;2022-08-26T03:08:44;93648.78;;;17.24;82.04
52105;BME280;38103;42.776;23.112;2022-08-26T03:11:10;93554.19;;;16.51;81.90
52105;BME280;38103;42.776;23.112;2022-08-26T03:13:37;93651.03;;;17.12;82.85
52105;BME280;38103;42.776;23.112;2022-08-26T03:16:03;93642.16;;;16.92;83.94
52105;BME280;38103;42.776;23.112;2022-08-26T03:18:29;93647.06;;;16.79;84.19
52105;BME280;38103;42.776;23.112;2022-08-26T03:20:54;93644.56;;;16.88;83.82
52105;BME280;38103;42.776;23.112;2022-08-26T03:23:20;93643.22;;;16.91;84.82
52105;BME280;38103;42.776;23.112;2022-08-26T03:25:50;93648.19;;;16.73;85.54
52105;BME280;38103;42.776;23.112;2022-08-26T03:28:15;93651.44;;;16.70;86.44
52105;BME280;38103;42.776;23.112;2022-08-26T03:30:41;93649.53;;;16.70;86.46
52105;BME280;38103;42.776;23.112;2022-08-26T03:33:08;93647.16;;;16.69;85.64
52105;BME280;38103;42.776;23.112;2022-08-26T03:35:35;93648.53;;;16.66;85.86
52105;BME280;38103;42.776;23.112;2022-08-26T03:38:02;93649.84;;;16.69;86.77
52105;BME280;38103;42.776;23.112;2022-08-26T03:40:28;93648.72;;;16.75;86.58
52105;BME280;38103;42.776;23.112;2022-08-26T03:42:53;93574.97;;;16.25;87.07
52105;BME280;38103;42.776;23.112;2022-08-26T03:45:20;93640.47;;;16.71;87.57
52105;BME280;38103;42.776;23.112;2022-08-26T03:47:46;93561.03;;;16.33;86.59
52105;BME280;38103;42.776;23.112;2022-08-26T03:50:14;93641.84;;;16.93;86.82
52105;BME280;38103;42.776;23.112;2022-08-26T03:52:41;93638.00;;;17.05;86.07
52105;BME280;38103;42.776;23.112;2022-08-26T03:55:07;93641.91;;;17.18;85.61
52105;BME280;38103;42.776;23.112;2022-08-26T03:57:33;93639.13;;;17.28;86.02
52105;BME280;38103;42.776;23.112;2022-08-26T03:59:59;93577.00;;;16.93;86.18
52105;BME280;38103;42.776;23.112;2022-08-26T04:02:25;93571.06;;;16.96;85.39
52105;BME280;38103;42.776;23.112;2022-08-26T04:04:50;93638.84;;;17.55;85.52
52105;BME280;38103;42.776;23.112;2022-08-26T04:07:16;93640.84;;;17.63;85.41
52105;BME280;38103;42.776;23.112;2022-08-26T04:09:41;93621.13;;;17.59;85.12
52105;BME280;38103;42.776;23.112;2022-08-26T04:12:07;93585.50;;;17.44;84.88
52105;BME280;38103;42.776;23.112;2022-08-26T04:14:33;93638.41;;;17.86;84.68
52105;BME280;38103;42.776;23.112;2022-08-26T04:17:01;93634.09;;;17.90;84.72
52105;BME280;38103;42.776;23.112;2022-08-26T04:19:29;93641.00;;;17.91;84.56
52105;BME280;38103;42.776;23.112;2022-08-26T04:21:55;93630.25;;;17.96;83.95
52105;BME280;38103;42.776;23.112;2022-08-26T04:24:23;93637.06;;;18.08;83.59
52105;BME280;38103;42.776;23.112;2022-08-26T04:26:50;93641.03;;;18.11;83.56
52105;BME280;38103;42.776;23.112;2022-08-26T04:29:21;93591.31;;;17.90;83.89
52105;BME280;38103;42.776;23.112;2022-08-26T04:31:48;93638.44;;;18.25;83.06
52105;BME280;38103;42.776;23.112;2022-08-26T04:34:15;93634.09;;;18.29;83.54
52105;BME280;38103;42.776;23.112;2022-08-26T04:36:42;93636.69;;;18.34;83.16
52105;BME280;38103;42.776;23.112;2022-08-26T04:39:10;93631.75;;;18.41;83.73
52105;BME280;38103;42.776;23.112;2022-08-26T04:41:38;93619.03;;;18.33;83.21
52105;BME280;38103;42.776;23.112;2022-08-26T04:44:04;93635.44;;;18.46;83.26
52105;BME280;38103;42.776;23.112;2022-08-26T04:46:31;93597.22;;;18.26;83.90
52105;BME280;38103;42.776;23.112;2022-08-26T04:48:56;93636.66;;;18.53;84.24
52105;BME280;38103;42.776;23.112;2022-08-26T04:51:22;93586.06;;;18.18;84.68
52105;BME280;38103;42.776;23.112;2022-08-26T04:53:53;93633.41;;;18.57;84.81
52105;BME280;38103;42.776;23.112;2022-08-26T04:56:18;93633.09;;;18.58;85.52
52105;BME280;38103;42.776;23.112;2022-08-26T04:58:44;93630.41;;;18.58;85.72
52105;BME280;38103;42.776;23.112;2022-08-26T05:01:09;93625.22;;;18.48;87.17
52105;BME280;38103;42.776;23.112;2022-08-26T05:03:34;93629.84;;;18.61;86.93
52105;BME280;38103;42.776;23.112;2022-08-26T05:06:03;93635.81;;;18.72;87.11
52105;BME280;38103;42.776;23.112;2022-08-26T05:08:28;93630.28;;;18.83;86.48
52105;BME280;38103;42.776;23.112;2022-08-26T05:10:54;93589.84;;;18.51;86.24
52105;BME280;38103;42.776;23.112;2022-08-26T05:13:21;93640.59;;;18.90;86.48
52105;BME280;38103;42.776;23.112;2022-08-26T05:15:47;93638.84;;;18.99;85.71
52105;BME280;38103;42.776;23.112;2022-08-26T05:18:15;93650.56;;;19.03;85.46
52105;BME280;38103;42.776;23.112;2022-08-26T05:20:43;93569.28;;;18.65;85.22
52105;BME280;38103;42.776;23.112;2022-08-26T05:23:09;93549.03;;;18.59;84.85
52105;BME280;38103;42.776;23.112;2022-08-26T05:25:39;93632.16;;;19.30;84.01
52105;BME280;38103;42.776;23.112;2022-08-26T05:28:10;93628.56;;;19.35;82.79
52105;BME280;38103;42.776;23.112;2022-08-26T05:30:36;93643.47;;;19.55;81.94
52105;BME280;38103;42.776;23.112;2022-08-26T05:33:02;93556.31;;;19.01;81.90
52105;BME280;38103;42.776;23.112;2022-08-26T05:35:29;93570.47;;;19.16;81.61
52105;BME280;38103;42.776;23.112;2022-08-26T05:38:03;93647.97;;;19.83;80.72
52105;BME280;38103;42.776;23.112;2022-08-26T05:40:33;93646.38;;;19.96;80.74
52105;BME280;38103;42.776;23.112;2022-08-26T05:43:01;93646.56;;;19.99;79.49
52105;BME280;38103;42.776;23.112;2022-08-26T05:45:32;93652.72;;;20.14;80.14
52105;BME280;38103;42.776;23.112;2022-08-26T05:47:57;93648.56;;;20.31;79.52
52105;BME280;38103;42.776;23.112;2022-08-26T05:50:23;93657.31;;;20.60;79.08
52105;BME280;38103;42.776;23.112;2022-08-26T05:52:50;93651.63;;;20.84;78.92
52105;BME280;38103;42.776;23.112;2022-08-26T05:55:16;93649.88;;;21.12;76.29
52105;BME280;38103;42.776;23.112;2022-08-26T05:57:42;93654.59;;;21.38;75.70
52105;BME280;38103;42.776;23.112;2022-08-26T06:00:09;93622.78;;;21.40;74.37
52105;BME280;38103;42.776;23.112;2022-08-26T06:02:35;93652.31;;;21.72;74.28
52105;BME280;38103;42.776;23.112;2022-08-26T06:05:02;93654.28;;;21.89;72.85
52105;BME280;38103;42.776;23.112;2022-08-26T06:07:28;93659.19;;;21.87;72.69
52105;BME280;38103;42.776;23.112;2022-08-26T06:10:12;93642.00;;;21.65;71.87
52105;BME280;38103;42.776;23.112;2022-08-26T06:12:38;93663.56;;;21.83;72.46
52105;BME280;38103;42.776;23.112;2022-08-26T06:15:04;93660.59;;;21.93;71.48
52105;BME280;38103;42.776;23.112;2022-08-26T06:17:30;93656.50;;;22.05;71.62
52105;BME280;38103;42.776;23.112;2022-08-26T06:19:55;93658.91;;;22.15;70.82
52105;BME280;38103;42.776;23.112;2022-08-26T06:22:21;93649.88;;;22.11;70.82
52105;BME280;38103;42.776;23.112;2022-08-26T06:25:05;93670.44;;;22.07;70.68
52105;BME280;38103;42.776;23.112;2022-08-26T06:27:49;93667.75;;;21.98;71.71
52105;BME280;38103;42.776;23.112;2022-08-26T06:30:15;93665.69;;;21.95;71.61
52105;BME280;38103;42.776;23.112;2022-08-26T06:32:40;93673.91;;;21.90;71.71
52105;BME280;38103;42.776;23.112;2022-08-26T06:35:06;93678.81;;;21.87;72.51
52105;BME280;38103;42.776;23.112;2022-08-26T06:37:31;93675.25;;;21.78;71.63
52105;BME280;38103;42.776;23.112;2022-08-26T06:39:56;93673.22;;;21.84;72.54
52105;BME280;38103;42.776;23.112;2022-08-26T06:42:22;93681.78;;;21.86;72.85
52105;BME280;38103;42.776;23.112;2022-08-26T06:44:47;93671.28;;;21.75;73.09
52105;BME280;38103;42.776;23.112;2022-08-26T06:47:13;93598.41;;;21.27;73.72
52105;BME280;38103;42.776;23.112;2022-08-26T06:49:38;93668.47;;;21.81;72.63
52105;BME280;38103;42.776;23.112;2022-08-26T06:52:03;93672.34;;;21.97;71.20
52105;BME280;38103;42.776;23.112;2022-08-26T06:54:29;93684.03;;;22.02;71.39
52105;BME280;38103;42.776;23.112;2022-08-26T06:56:55;93679.47;;;22.02;71.75
52105;BME280;38103;42.776;23.112;2022-08-26T06:59:21;93670.59;;;21.93;71.72
52105;BME280;38103;42.776;23.112;2022-08-26T07:01:47;93679.94;;;21.95;71.34
52105;BME280;38103;42.776;23.112;2022-08-26T07:07:34;93674.41;;;22.09;72.09
52105;BME280;38103;42.776;23.112;2022-08-26T07:09:59;93597.97;;;21.52;72.25
52105;BME280;38103;42.776;23.112;2022-08-26T07:12:25;93589.72;;;21.39;72.79
52105;BME280;38103;42.776;23.112;2022-08-26T07:14:51;93572.75;;;21.21;72.25
52105;BME280;38103;42.776;23.112;2022-08-26T07:17:17;93573.72;;;21.25;73.52
52105;BME280;38103;42.776;23.112;2022-08-26T07:19:44;93583.44;;;21.44;73.16
52105;BME280;38103;42.776;23.112;2022-08-26T07:22:09;93601.03;;;21.68;72.79
52105;BME280;38103;42.776;23.112;2022-08-26T07:24:55;93683.44;;;22.23;71.83
52105;BME280;38103;42.776;23.112;2022-08-26T07:27:20;93686.59;;;22.25;71.05
52105;BME280;38103;42.776;23.112;2022-08-26T07:29:46;93693.75;;;22.38;71.68
52105;BME280;38103;42.776;23.112;2022-08-26T07:32:13;93685.34;;;22.49;70.29
52105;BME280;38103;42.776;23.112;2022-08-26T07:34:40;93693.59;;;22.61;67.86
52105;BME280;38103;42.776;23.112;2022-08-26T07:37:05;93694.72;;;22.78;67.45
52105;BME280;38103;42.776;23.112;2022-08-26T07:39:31;93691.34;;;22.99;65.97
52105;BME280;38103;42.776;23.112;2022-08-26T07:41:58;93683.19;;;23.26;65.48
52105;BME280;38103;42.776;23.112;2022-08-26T07:44:23;93686.81;;;23.39;63.22
52105;BME280;38103;42.776;23.112;2022-08-26T07:46:51;93683.88;;;23.62;63.67
52105;BME280;38103;42.776;23.112;2022-08-26T07:49:16;93634.13;;;23.32;60.57
52105;BME280;38103;42.776;23.112;2022-08-26T07:51:43;93689.72;;;23.73;61.50
52105;BME280;38103;42.776;23.112;2022-08-26T07:54:08;93687.88;;;24.16;64.67
52105;BME280;38103;42.776;23.112;2022-08-26T07:56:34;93689.69;;;24.55;63.58
52105;BME280;38103;42.776;23.112;2022-08-26T07:59:00;93686.44;;;24.96;60.34
52105;BME280;38103;42.776;23.112;2022-08-26T08:01:25;93624.00;;;24.76;51.67
52105;BME280;38103;42.776;23.112;2022-08-26T08:03:52;93684.72;;;25.13;49.87
52105;BME280;38103;42.776;23.112;2022-08-26T08:06:19;93637.53;;;24.88;48.98
52105;BME280;38103;42.776;23.112;2022-08-26T08:08:46;93679.13;;;25.30;52.60
52105;BME280;38103;42.776;23.112;2022-08-26T08:11:11;93674.41;;;25.52;51.77
52105;BME280;38103;42.776;23.112;2022-08-26T08:13:37;93669.44;;;25.42;44.18
52105;BME280;38103;42.776;23.112;2022-08-26T08:16:03;93674.78;;;25.04;44.96
52105;BME280;38103;42.776;23.112;2022-08-26T08:18:29;93670.28;;;25.08;46.56
52105;BME280;38103;42.776;23.112;2022-08-26T08:20:55;93669.31;;;24.92;50.63
52105;BME280;38103;42.776;23.112;2022-08-26T08:23:20;93646.63;;;25.18;50.62
52105;BME280;38103;42.776;23.112;2022-08-26T08:25:46;93675.25;;;25.06;48.66
52105;BME280;38103;42.776;23.112;2022-08-26T08:28:13;93673.75;;;24.75;43.32
52105;BME280;38103;42.776;23.112;2022-08-26T08:30:39;93610.66;;;24.58;46.32
52105;BME280;38103;42.776;23.112;2022-08-26T08:33:05;93671.19;;;24.78;44.15
52105;BME280;38103;42.776;23.112;2022-08-26T08:35:30;93670.09;;;24.92;43.16
52105;BME280;38103;42.776;23.112;2022-08-26T08:37:56;93675.16;;;24.81;44.74
52105;BME280;38103;42.776;23.112;2022-08-26T08:40:24;93665.66;;;24.75;43.33
52105;BME280;38103;42.776;23.112;2022-08-26T08:45:41;93666.19;;;24.25;45.05
52105;BME280;38103;42.776;23.112;2022-08-26T08:50:51;93665.31;;;24.42;46.23
52105;BME280;38103;42.776;23.112;2022-08-26T08:53:24;93663.28;;;24.09;47.53
52105;BME280;38103;42.776;23.112;2022-08-26T09:01:47;93645.31;;;24.56;48.40
52105;BME280;38103;42.776;23.112;2022-08-26T09:07:40;93648.28;;;24.63;50.21
52105;BME280;38103;42.776;23.112;2022-08-26T09:10:40;93648.94;;;24.60;45.28
52105;BME280;38103;42.776;23.112;2022-08-26T09:13:10;93647.69;;;24.36;44.87
52105;BME280;38103;42.776;23.112;2022-08-26T09:15:47;93649.75;;;24.39;44.94
52105;BME280;38103;42.776;23.112;2022-08-26T09:21:04;93646.19;;;24.26;47.55
52105;BME280;38103;42.776;23.112;2022-08-26T09:23:32;93641.66;;;24.39;43.57
52105;BME280;38103;42.776;23.112;2022-08-26T09:26:01;93651.75;;;24.21;45.27
52105;BME280;38103;42.776;23.112;2022-08-26T09:28:29;93640.94;;;24.30;45.97
52105;BME280;38103;42.776;23.112;2022-08-26T09:31:19;93640.94;;;24.30;45.83
52105;BME280;38103;42.776;23.112;2022-08-26T09:33:43;93602.63;;;24.28;43.51
52105;BME280;38103;42.776;23.112;2022-08-26T09:36:33;93638.13;;;24.60;44.22
52105;BME280;38103;42.776;23.112;2022-08-26T09:38:59;93646.25;;;24.60;44.07
52105;BME280;38103;42.776;23.112;2022-08-26T09:41:31;93648.88;;;24.82;43.54
52105;BME280;38103;42.776;23.112;2022-08-26T09:46:29;93609.09;;;24.70;44.16
52105;BME280;38103;42.776;23.112;2022-08-26T09:48:55;93645.50;;;25.06;45.91
52105;BME280;38103;42.776;23.112;2022-08-26T09:54:01;93640.09;;;25.06;46.92
52105;BME280;38103;42.776;23.112;2022-08-26T09:56:32;93641.47;;;25.13;41.70
52105;BME280;38103;42.776;23.112;2022-08-26T09:58:59;93637.59;;;25.14;42.66
52105;BME280;38103;42.776;23.112;2022-08-26T10:01:32;93641.47;;;25.13;42.16
52105;BME280;38103;42.776;23.112;2022-08-26T10:04:07;93641.47;;;25.25;43.21
52105;BME280;38103;42.776;23.112;2022-08-26T10:09:21;93601.78;;;25.29;41.63
52105;BME280;38103;42.776;23.112;2022-08-26T10:11:54;93633.69;;;25.49;40.75
52105;BME280;38103;42.776;23.112;2022-08-26T10:14:31;93629.63;;;25.80;39.40
52105;BME280;38103;42.776;23.112;2022-08-26T10:17:13;93630.84;;;25.95;39.08
52105;BME280;38103;42.776;23.112;2022-08-26T10:19:53;93590.41;;;25.61;38.53
52105;BME280;38103;42.776;23.112;2022-08-26T10:25:45;93625.03;;;25.55;37.23
52105;BME280;38103;42.776;23.112;2022-08-26T10:28:46;93627.50;;;25.86;39.57
52105;BME280;38103;42.776;23.112;2022-08-26T10:31:22;93631.38;;;26.14;41.97
52105;BME280;38103;42.776;23.112;2022-08-26T10:33:50;93628.88;;;26.33;38.88
52105;BME280;38103;42.776;23.112;2022-08-26T10:36:19;93628.06;;;26.46;37.64
52105;BME280;38103;42.776;23.112;2022-08-26T10:39:07;93621.16;;;26.48;37.75
52105;BME280;38103;42.776;23.112;2022-08-26T10:41:40;93594.59;;;26.13;36.42
52105;BME280;38103;42.776;23.112;2022-08-26T10:44:09;93621.91;;;26.61;37.28
52105;BME280;38103;42.776;23.112;2022-08-26T10:46:44;93620.72;;;26.46;36.83
52105;BME280;38103;42.776;23.112;2022-08-26T10:49:13;93616.03;;;26.59;37.30
52105;BME280;38103;42.776;23.112;2022-08-26T10:54:38;93619.06;;;26.58;37.23
52105;BME280;38103;42.776;23.112;2022-08-26T10:57:16;93609.09;;;26.46;35.70
52105;BME280;38103;42.776;23.112;2022-08-26T11:02:23;93616.03;;;26.18;37.26
52105;BME280;38103;42.776;23.112;2022-08-26T11:18:11;93607.25;;;26.50;36.34
52105;BME280;38103;42.776;23.112;2022-08-26T11:20:47;93601.75;;;26.62;35.56
52105;BME280;38103;42.776;23.112;2022-08-26T11:33:56;93600.69;;;26.51;38.29
52105;BME280;38103;42.776;23.112;2022-08-26T11:39:31;93596.78;;;25.94;36.18
52105;BME280;38103;42.776;23.112;2022-08-26T11:44:41;93586.09;;;26.27;37.23
52105;BME280;38103;42.776;23.112;2022-08-26T11:47:11;93604.56;;;26.37;38.10
52105;BME280;38103;42.776;23.112;2022-08-26T11:49:38;93599.38;;;26.32;36.40
52105;BME280;38103;42.776;23.112;2022-08-26T11:52:18;93580.28;;;26.70;36.23
52105;BME280;38103;42.776;23.112;2022-08-26T11:55:08;93593.81;;;26.53;35.63
52105;BME280;38103;42.776;23.112;2022-08-26T11:57:41;93580.38;;;26.44;36.45
52105;BME280;38103;42.776;23.112;2022-08-26T12:00:10;93588.84;;;26.43;35.95
52105;BME280;38103;42.776;23.112;2022-08-26T12:02:41;93596.97;;;26.43;36.02
52105;BME280;38103;42.776;23.112;2022-08-26T12:05:07;93515.75;;;26.02;37.26
52105;BME280;38103;42.776;23.112;2022-08-26T12:07:33;93591.72;;;26.63;37.14
52105;BME280;38103;42.776;23.112;2022-08-26T12:10:00;93586.72;;;26.65;36.44
52105;BME280;38103;42.776;23.112;2022-08-26T12:15:04;93583.25;;;26.36;37.34
52105;BME280;38103;42.776;23.112;2022-08-26T12:17:30;93592.78;;;26.17;36.24
52105;BME280;38103;42.776;23.112;2022-08-26T12:19:56;93589.34;;;25.91;37.36
52105;BME280;38103;42.776;23.112;2022-08-26T12:22:25;93578.19;;;26.21;38.97
52105;BME280;38103;42.776;23.112;2022-08-26T12:24:59;93573.19;;;26.36;37.18
52105;BME280;38103;42.776;23.112;2022-08-26T12:27:30;93571.63;;;26.64;37.71
52105;BME280;38103;42.776;23.112;2022-08-26T12:32:31;93576.84;;;26.28;33.24
52105;BME280;38103;42.776;23.112;2022-08-26T12:34:57;93572.88;;;26.25;33.19
52105;BME280;38103;42.776;23.112;2022-08-26T12:37:26;93571.06;;;26.58;36.16
52105;BME280;38103;42.776;23.112;2022-08-26T12:39:53;93567.69;;;26.61;32.90
52105;BME280;38103;42.776;23.112;2022-08-26T12:44:45;93567.56;;;26.29;35.51
52105;BME280;38103;42.776;23.112;2022-08-26T12:49:40;93562.84;;;26.54;37.79
52105;BME280;38103;42.776;23.112;2022-08-26T12:52:19;93568.66;;;26.40;36.66
52105;BME280;38103;42.776;23.112;2022-08-26T12:54:55;93565.78;;;26.49;37.02
52105;BME280;38103;42.776;23.112;2022-08-26T12:57:36;93560.16;;;26.71;36.14
52105;BME280;38103;42.776;23.112;2022-08-26T13:02:55;93561.91;;;26.79;34.54
52105;BME280;38103;42.776;23.112;2022-08-26T13:05:24;93550.72;;;26.64;35.44
52105;BME280;38103;42.776;23.112;2022-08-26T13:08:13;93548.06;;;26.52;35.36
52105;BME280;38103;42.776;23.112;2022-08-26T13:10:42;93548.44;;;26.66;34.53
52105;BME280;38103;42.776;23.112;2022-08-26T13:13:08;93540.63;;;26.65;33.90
52105;BME280;38103;42.776;23.112;2022-08-26T13:15:33;93531.56;;;26.73;34.58
52105;BME280;38103;42.776;23.112;2022-08-26T13:17:59;93557.81;;;26.40;33.94
52105;BME280;38103;42.776;23.112;2022-08-26T13:20:24;93549.97;;;26.22;34.85
52105;BME280;38103;42.776;23.112;2022-08-26T13:22:50;93547.06;;;26.15;36.39
52105;BME280;38103;42.776;23.112;2022-08-26T13:25:15;93543.50;;;25.98;35.64
52105;BME280;38103;42.776;23.112;2022-08-26T13:27:41;93545.50;;;26.14;36.44
52105;BME280;38103;42.776;23.112;2022-08-26T13:30:08;93542.03;;;26.30;36.60
52105;BME280;38103;42.776;23.112;2022-08-26T13:32:34;93543.13;;;26.41;35.84
52105;BME280;38103;42.776;23.112;2022-08-26T13:34:59;93547.47;;;26.30;36.05
52105;BME280;38103;42.776;23.112;2022-08-26T13:37:25;93544.63;;;26.39;35.41
52105;BME280;38103;42.776;23.112;2022-08-26T13:39:51;93540.88;;;26.43;36.52
52105;BME280;38103;42.776;23.112;2022-08-26T13:42:18;93478.38;;;25.78;34.18
52105;BME280;38103;42.776;23.112;2022-08-26T13:44:44;93533.09;;;26.13;34.73
52105;BME280;38103;42.776;23.112;2022-08-26T13:47:11;93542.22;;;26.37;34.96
52105;BME280;38103;42.776;23.112;2022-08-26T13:49:37;93484.09;;;25.89;35.47
52105;BME280;38103;42.776;23.112;2022-08-26T13:52:03;93551.03;;;26.34;35.03
52105;BME280;38103;42.776;23.112;2022-08-26T13:54:28;93542.66;;;26.23;34.47
52105;BME280;38103;42.776;23.112;2022-08-26T13:56:53;93540.19;;;26.18;35.78
52105;BME280;38103;42.776;23.112;2022-08-26T13:59:19;93545.09;;;25.99;34.33
52105;BME280;38103;42.776;23.112;2022-08-26T14:01:44;93543.50;;;25.98;35.76
52105;BME280;38103;42.776;23.112;2022-08-26T14:04:10;93543.13;;;25.84;35.73
52105;BME280;38103;42.776;23.112;2022-08-26T14:06:35;93550.75;;;25.94;35.31
52105;BME280;38103;42.776;23.112;2022-08-26T14:09:01;93530.94;;;25.77;35.53
52105;BME280;38103;42.776;23.112;2022-08-26T14:11:27;93547.38;;;25.97;35.37
52105;BME280;38103;42.776;23.112;2022-08-26T14:13:53;93541.34;;;26.04;35.52
52105;BME280;38103;42.776;23.112;2022-08-26T14:16:28;93525.22;;;26.08;36.95
52105;BME280;38103;42.776;23.112;2022-08-26T14:18:57;93534.47;;;26.07;36.21